Atlantida Azul — CSYG2 — position and weather

sailwx.info

Track history (hours):
 
Tides and Currents Weather Stations Pressure Air Temp Water Temp Dewpoint Dewpoint Depression Visibility Wind Speed Wind Dir Waves Ship Positions

Atlantida Azul

Last reported at 2014-Jul-14 02:12 UTC. Time now 2014-Jul-22 13:24 UTC.
Position N 37°56' W 008°51'.
Warning: this ship's position is 8 days out of date.

Length 16 m.

Type: Pilot. MMSI: 263672880.

Date/timePositionNaut miles runAvg speedWind from/ knotsBaromVisibWave heightAir tempDewpointWater temp
2014-Jul-14 02:12N 37°56' W 008°51'  
2014-Jul-07 06:21N 37°56' W 008°51'0 0.0
2014-Jul-07 04:20N 37°56' W 008°51'0 0.0
2014-Jul-07 01:31N 37°56' W 008°51'0 0.4
2014-Jul-07 00:32N 37°56' W 008°51'0 0.2
2014-Jul-06 22:04N 37°56' W 008°51'2 3.5
2014-Jul-06 21:33N 37°57' W 008°53'2 0.3
2014-Jul-06 15:33N 37°56' W 008°51'0 0.0
2014-Jul-06 14:33N 37°56' W 008°51'0 0.0
2014-Jul-06 10:33N 37°56' W 008°51'2 1.6
2014-Jul-06 09:31N 37°57' W 008°53'0 0.3
2014-Jul-06 08:30N 37°57' W 008°53'2 1.6
2014-Jul-06 07:15N 37°56' W 008°51'2 0.4
2014-Jul-06 03:33N 37°55' W 008°51'1 1.3
2014-Jul-06 02:31N 37°56' W 008°51'0 0.0
2014-Jul-05 16:07N 37°56' W 008°51'0 0.9
2014-Jul-05 15:33N 37°56' W 008°51'2 0.6
2014-Jul-05 11:33N 37°53' W 008°51'3 0.3
2014-Jul-05 03:19N 37°56' W 008°51'0 0.1
2014-Jul-05 02:33N 37°56' W 008°51'0 0.1
2014-Jul-05 01:28N 37°56' W 008°51'1 1.1
2014-Jul-05 00:33N 37°55' W 008°50'2 1.8
2014-Jul-04 23:33N 37°55' W 008°53'2 1.9
2014-Jul-04 22:32N 37°56' W 008°51'0 0.0
2014-Jul-04 18:19N 37°56' W 008°51'0 0.0
2014-Jul-04 10:09N 37°56' W 008°51'1 2.2
2014-Jul-04 09:32N 37°57' W 008°52'1 1.4
2014-Jul-04 08:33N 37°56' W 008°51'0 0.0
2014-Jul-04 05:13N 37°56' W 008°51'1 1.1
2014-Jul-04 04:33N 37°56' W 008°52'  
Track history (hours):
 
Tides and Currents Weather Stations Pressure Air Temp Water Temp Dewpoint Dewpoint Depression Visibility Wind Speed Wind Dir Waves Ship Positions

Atlantida Azul

Last reported at 2014-Jul-14 02:12 UTC. Time now 2014-Jul-22 13:24 UTC.
Position N 37°56' W 008°51'.
Warning: this ship's position is 8 days out of date.

Length 16 m.

Type: Pilot. MMSI: 263672880.

Date/timePositionNaut miles runAvg speedWind from/ knotsBaromVisibWave heightAir tempDewpointWater temp
2014-Jul-14 02:12N 37°56' W 008°51'  
2014-Jul-07 06:21N 37°56' W 008°51'0 0.0
2014-Jul-07 04:20N 37°56' W 008°51'0 0.0
2014-Jul-07 01:31N 37°56' W 008°51'0 0.4
2014-Jul-07 00:32N 37°56' W 008°51'0 0.2
2014-Jul-06 22:04N 37°56' W 008°51'2 3.5
2014-Jul-06 21:33N 37°57' W 008°53'2 0.3
2014-Jul-06 15:33N 37°56' W 008°51'0 0.0
2014-Jul-06 14:33N 37°56' W 008°51'0 0.0
2014-Jul-06 10:33N 37°56' W 008°51'2 1.6
2014-Jul-06 09:31N 37°57' W 008°53'0 0.3
2014-Jul-06 08:30N 37°57' W 008°53'2 1.6
2014-Jul-06 07:15N 37°56' W 008°51'2 0.4
2014-Jul-06 03:33N 37°55' W 008°51'1 1.3
2014-Jul-06 02:31N 37°56' W 008°51'0 0.0
2014-Jul-05 16:07N 37°56' W 008°51'0 0.9
2014-Jul-05 15:33N 37°56' W 008°51'2 0.6
2014-Jul-05 11:33N 37°53' W 008°51'3 0.3
2014-Jul-05 03:19N 37°56' W 008°51'0 0.1
2014-Jul-05 02:33N 37°56' W 008°51'0 0.1
2014-Jul-05 01:28N 37°56' W 008°51'1 1.1
2014-Jul-05 00:33N 37°55' W 008°50'2 1.8
2014-Jul-04 23:33N 37°55' W 008°53'2 1.9
2014-Jul-04 22:32N 37°56' W 008°51'0 0.0
2014-Jul-04 18:19N 37°56' W 008°51'0 0.0
2014-Jul-04 10:09N 37°56' W 008°51'1 2.2
2014-Jul-04 09:32N 37°57' W 008°52'1 1.4
2014-Jul-04 08:33N 37°56' W 008°51'0 0.0
2014-Jul-04 05:13N 37°56' W 008°51'1 1.1
2014-Jul-04 04:33N 37°56' W 008°52'  

Dump ship's entire track history